Latest Weather Observations for Amberley

IDQ60801

Issued at 8:12 am EST Tuesday 22 January 2019 (issued every 10 minutes, with the page automatically refreshed every 10 minutes)

About weather observations | Map of weather stations | Latest weather observations for QLD | Other Formats
Station Details ID: 040004 Name: AMBERLEY AMO Lat: -27.63 Lon: 152.71 Height: 24.2 m
Data from the previous 72 hours. | See also: Recent months at Amberley
Date/Time
EST
Temp
°C
App
Temp
°C
Dew
Point
°C
Rel
Hum
%
Delta-T
°C
Wind Press
QNH
hPa
Press
MSL
hPa
Rain since
9am
mm
Dir  Spd
km/h
Gust
km/h
Spd
kts
Gust
kts
22/08:00am 26.9 29.3 20.0 66 4.5 ESE 7 17 4 9 1017.3 1017.2 0.0
22/07:30am 25.5 27.8 19.9 71 3.6 S 7 11 4 6 1017.3 1017.2 0.0
22/07:00am 24.0 26.3 19.9 78 2.6 SSW 7 9 4 5 1017.4 1017.3 0.0
22/06:30am 22.9 25.0 20.1 84 1.8 SSW 9 11 5 6 1017.1 1017.0 0.0
22/06:00am 20.7 24.0 19.2 91 0.9 CALM 0 0 0 0 1016.8 1016.7 0.0
22/05:30am 20.3 22.2 19.0 92 0.8 E 7 9 4 5 1016.7 1016.6 0.0
22/05:00am 20.2 22.3 18.9 92 0.8 E 6 9 3 5 1016.5 1016.4 0.0
22/04:30am 20.2 23.4 18.9 92 0.8 CALM 0 0 0 0 1016.3 1016.2 0.0
22/04:00am 20.4 22.3 18.9 91 0.9 E 7 7 4 4 1016.2 1016.1 0.0
22/03:30am 20.0 21.4 18.7 92 0.8 E 9 11 5 6 1016.1 1016.0 0.0
22/03:00am 20.6 22.7 18.9 90 1.1 E 6 7 3 4 1015.9 1015.8 0.0
22/02:30am 21.1 23.2 18.9 87 1.4 E 6 7 3 4 1016.3 1016.2 0.0
22/02:00am 21.6 24.1 19.0 85 1.6 E 4 7 2 4 1016.4 1016.3 0.0
22/01:30am 22.3 24.5 19.5 84 1.8 E 7 7 4 4 1016.6 1016.5 0.0
22/01:00am 22.1 24.4 19.5 85 1.7 E 6 7 3 4 1016.8 1016.7 0.0
22/12:30am 22.6 24.8 19.2 81 2.2 E 6 7 3 4 1017.1 1017.0 0.0
22/12:00am 22.7 24.8 19.3 81 2.2 E 7 9 4 5 1017.4 1017.3 0.0
 
Date/Time
EST
Temp
°C
App
Temp
°C
Dew
Point
°C
Rel
Hum
%
Delta-T
°C
Wind Press
QNH
hPa
Press
MSL
hPa
Rain since
9am
mm
Dir  Spd
km/h
Gust
km/h
Spd
kts
Gust
kts
21/11:30pm 23.2 25.4 19.2 78 2.5 E 6 7 3 4 1017.7 1017.6 0.0
21/11:00pm 24.2 26.1 19.7 76 2.9 E 9 13 5 7 1018.1 1018.0 0.0
21/10:30pm 24.6 25.7 19.7 74 3.2 E 13 15 7 8 1018.4 1018.3 0.0
21/10:00pm 25.0 25.4 19.8 73 3.4 E 17 26 9 14 1018.5 1018.4 0.0
21/09:30pm 25.2 25.0 19.8 72 3.5 E 20 28 11 15 1018.5 1018.4 0.0
21/09:00pm 25.4 24.7 19.5 70 3.8 ENE 22 30 12 16 1018.2 1018.1 0.0
21/08:30pm 25.8 24.2 19.2 67 4.2 ENE 26 32 14 17 1017.9 1017.8 0.0
21/08:00pm 26.1 24.7 18.8 64 4.7 ENE 24 32 13 17 1017.5 1017.4 0.0
21/07:30pm 26.3 24.5 18.7 63 4.9 E 26 33 14 18 1017.0 1016.9 0.0
21/07:00pm 26.8 24.8 18.4 60 5.3 E 26 37 14 20 1016.7 1016.6 0.0
21/06:30pm 27.3 24.3 18.6 59 5.6 E 32 43 17 23 1016.3 1016.2 0.0
21/06:00pm 28.3 25.1 18.7 56 6.2 E 33 43 18 23 1015.5 1015.4 0.0
21/05:30pm 29.8 27.2 18.6 51 7.2 E 30 37 16 20 1014.9 1014.8 0.0
21/05:00pm 30.7 27.8 18.8 49 7.7 E 32 39 17 21 1014.6 1014.5 0.0
21/04:30pm 31.0 28.7 18.4 47 8.1 ENE 28 35 15 19 1014.1 1014.0 0.0
21/04:00pm 32.1 29.5 17.9 42 9.1 ENE 28 39 15 21 1014.1 1014.0 0.0
21/03:30pm 32.7 29.8 16.1 37 10.4 ENE 26 37 14 20 1014.1 1014.0 0.0
21/03:00pm 32.1 29.7 16.4 39 9.9 ENE 24 35 13 19 1014.2 1014.1 0.0
21/02:30pm 33.4 31.5 16.7 36 10.6 ENE 22 35 12 19 1014.3 1014.2 0.0
21/02:00pm 33.4 30.8 15.8 34 11.0 ENE 24 33 13 18 1014.5 1014.4 0.0
21/01:30pm 32.8 30.7 16.2 37 10.4 E 22 37 12 20 1015.0 1014.9 0.0
21/01:00pm 33.0 31.7 17.2 39 10.1 E 20 32 11 17 1015.2 1015.1 0.0
21/12:30pm 32.9 31.9 17.5 39 9.9 E 19 28 10 15 1015.7 1015.6 0.0
21/12:00pm 32.0 30.6 17.1 41 9.5 ENE 20 35 11 19 1015.7 1015.6 0.0
21/11:30am 31.9 31.1 18.1 43 8.9 NE 19 30 10 16 1016.1 1016.0 0.0
21/11:00am 30.9 30.3 17.6 45 8.5 E 17 33 9 18 1016.4 1016.3 0.0
21/10:30am 29.6 29.5 17.8 49 7.5 E 15 37 8 20 1016.6 1016.5 0.0
21/10:00am 29.9 28.8 17.7 48 7.8 E 20 32 11 17 1016.8 1016.7 0.0
21/09:30am 29.8 29.0 17.9 48 7.6 ENE 19 30 10 16 1017.0 1016.9 0.0
21/09:00am 29.3 29.1 18.4 51 7.0 E 17 26 9 14 1017.2 1017.1 0.0
21/08:30am 28.5 29.6 19.7 59 5.7 ESE 13 20 7 11 1017.4 1017.3 0.0
21/08:00am 27.1 28.4 20.2 66 4.5 E 13 20 7 11 1017.4 1017.3 0.0
21/07:30am 26.3 28.2 20.6 71 3.7 E 11 15 6 8 1017.3 1017.2 0.0
21/07:00am 25.8 27.6 20.4 72 3.5 SE 11 15 6 8 1017.2 1017.1 0.0
21/06:30am 23.8 27.5 20.7 83 2.0 SSE 2 7 1 4 1017.1 1017.0 0.0
21/06:00am 22.1 25.8 20.0 88 1.3 CALM 0 0 0 0 1016.9 1016.8 0.0
21/05:30am 22.3 24.8 19.8 86 1.6 SSE 6 9 3 5 1016.7 1016.6 0.0
21/05:00am 22.2 23.9 20.1 88 1.4 S 11 13 6 7 1016.5 1016.4 0.0
21/04:30am 21.8 25.1 19.2 85 1.6 CALM 0 0 0 0 1016.3 1016.2 0.0
21/04:00am 22.8 24.9 20.1 85 1.7 SSW 9 9 5 5 1016.2 1016.1 0.0
21/03:30am 23.0 25.4 20.1 84 1.9 S 7 9 4 5 1015.9 1015.8 0.0
21/03:00am 23.3 27.1 20.1 82 2.1 CALM 0 0 0 0 1015.9 1015.8 0.0
21/02:30am 23.9 27.7 20.2 80 2.4 CALM 0 0 0 0 1016.2 1016.1 0.0
21/02:00am 24.2 27.7 20.3 79 2.5 ESE 2 7 1 4 1016.4 1016.3 0.0
21/01:30am 23.7 26.2 20.2 81 2.3 ESE 7 9 4 5 1016.8 1016.7 0.0
21/01:00am 24.1 27.9 20.2 79 2.5 CALM 0 0 0 0 1016.8 1016.7 0.0
21/12:30am 24.2 26.6 20.1 78 2.7 ESE 7 9 4 5 1017.1 1017.0 0.0
21/12:00am 24.4 26.8 20.1 77 2.8 ESE 7 9 4 5 1017.4 1017.3 0.0
 
Date/Time
EST
Temp
°C
App
Temp
°C
Dew
Point
°C
Rel
Hum
%
Delta-T
°C
Wind Press
QNH
hPa
Press
MSL
hPa
Rain since
9am
mm
Dir  Spd
km/h
Gust
km/h
Spd
kts
Gust
kts
20/11:30pm 24.8 26.9 20.1 75 3.1 E 9 11 5 6 1017.5 1017.4 0.0
20/11:00pm 25.4 27.5 20.2 73 3.4 E 9 11 5 6 1017.7 1017.6 0.0
20/10:30pm 25.2 26.9 20.2 74 3.3 E 11 15 6 8 1017.9 1017.8 0.0
20/10:00pm 25.1 26.4 20.1 74 3.2 ENE 13 17 7 9 1018.0 1017.9 0.0
20/09:30pm 25.3 26.5 19.9 72 3.5 ENE 13 19 7 10 1018.0 1017.9 0.0
20/09:00pm 25.6 26.3 19.7 70 3.8 ENE 15 22 8 12 1017.8 1017.7 0.0
20/08:30pm 25.8 25.9 19.2 67 4.2 NE 17 24 9 13 1017.4 1017.3 0.0
20/08:00pm 26.2 27.0 19.1 65 4.6 NE 13 26 7 14 1017.0 1016.9 0.0
20/07:30pm 26.6 25.3 19.0 63 4.9 ENE 24 33 13 18 1016.6 1016.5 0.0
20/07:00pm 27.2 26.3 19.0 61 5.3 NE 22 32 12 17 1016.2 1016.1 0.0
20/06:30pm 27.8 26.5 19.1 59 5.6 NE 24 33 13 18 1015.7 1015.6 0.0
20/06:00pm 28.4 27.1 19.1 57 6.0 NE 24 33 13 18 1015.4 1015.3 0.0
20/05:30pm 29.5 27.4 18.9 53 6.9 NE 28 39 15 21 1015.0 1014.9 0.0
20/05:00pm 30.4 28.4 19.1 50 7.3 NE 28 37 15 20 1014.8 1014.7 0.0
20/04:30pm 31.7 30.1 19.3 47 8.1 NE 26 37 14 20 1014.5 1014.4 0.0
20/04:00pm 32.3 30.5 18.8 44 8.8 NE 26 37 14 20 1014.3 1014.2 0.0
20/03:30pm 32.8 30.4 17.4 39 9.9 ENE 26 33 14 18 1014.4 1014.3 0.0
20/03:00pm 33.3 31.0 16.6 36 10.6 NE 24 37 13 20 1014.6 1014.5 0.0
20/02:30pm 34.2 33.0 16.1 34 11.4 ENE 17 24 9 13 1014.7 1014.6 0.0
20/02:00pm 34.1 32.1 15.5 32 11.6 NE 20 35 11 19 1015.1 1015.0 0.0
20/01:30pm 33.1 31.1 15.6 35 10.9 NE 20 32 11 17 1015.5 1015.4 0.0
20/01:00pm 32.9 32.7 16.7 38 10.3 NNE 13 26 7 14 1016.0 1015.9 0.0
20/12:30pm 32.9 32.3 17.5 39 9.9 E 17 28 9 15 1016.5 1016.4 0.0
20/12:00pm 32.3 31.3 16.6 39 9.9 ENE 17 26 9 14 1017.0 1016.9 0.0
20/11:30am 31.7 31.9 17.6 43 9.0 NE 13 26 7 14 1017.3 1017.2 0.0
20/11:00am 30.9 31.2 17.9 45 8.3 ENE 13 28 7 15 1017.8 1017.7 0.0
20/10:30am 30.7 31.2 18.4 47 7.9 ESE 13 24 7 13 1018.2 1018.1 0.0
20/10:00am 29.6 29.6 18.1 50 7.3 E 15 26 8 14 1018.5 1018.4 0.0
20/09:30am 29.0 28.8 18.4 52 6.8 ESE 17 30 9 16 1018.7 1018.6 0.0
20/09:00am 27.9 28.9 19.4 60 5.5 E 13 20 7 11 1018.9 1018.8 0.0
20/08:30am 26.8 28.1 20.2 67 4.3 E 13 17 7 9 1019.0 1018.9 0.0
20/08:00am 25.6 28.1 21.1 76 3.0 ESE 9 13 5 7 1019.0 1018.9 0.0
20/07:30am 24.5 28.7 21.8 85 1.8 ESE 2 7 1 4 1018.8 1018.7 0.0
20/07:00am 22.7 26.7 21.3 92 0.9 ESE 2 11 1 6 1018.5 1018.4 0.0
20/06:30am 21.4 25.1 20.0 92 0.9 CALM 0 0 0 0 1018.0 1017.9 0.0
20/06:00am 21.1 23.5 20.1 94 0.6 ESE 7 7 4 4 1017.4 1017.3 0.0
20/05:30am 20.0 23.3 19.0 94 0.6 CALM 0 0 0 0 1016.7 1016.6 0.0
20/05:00am 20.3 22.0 18.4 89 1.2 ESE 7 7 4 4 1016.2 1016.1 0.0
20/04:30am 21.1 23.6 19.9 93 0.8 ESE 6 7 3 4 1015.7 1015.6 0.0
20/04:00am 20.8 22.6 19.5 92 0.8 ESE 9 11 5 6 1015.4 1015.3 0.0
20/03:30am 21.3 23.1 19.6 90 1.1 ESE 9 11 5 6 1015.3 1015.2 0.0
20/03:00am 22.1 24.6 20.2 89 1.2 ESE 7 9 4 5 1015.1 1015.0 0.0
20/02:30am 22.4 24.5 20.1 87 1.5 E 9 11 5 6 1015.0 1014.9 0.0
20/02:00am 22.1 23.3 20.0 88 1.3 E 13 17 7 9 1015.1 1015.0 0.0
20/01:30am 22.1 23.7 20.0 88 1.3 ESE 11 13 6 7 1015.2 1015.1 0.0
20/01:00am 22.2 23.5 20.1 88 1.4 SE 13 17 7 9 1015.6 1015.5 0.0
20/12:30am 22.1 23.5 19.5 85 1.7 SE 11 15 6 8 1015.9 1015.8 0.0
20/12:00am 23.2 23.8 20.2 83 1.9 E 17 22 9 12 1015.8 1015.7 0.0
 
Date/Time
EST
Temp
°C
App
Temp
°C
Dew
Point
°C
Rel
Hum
%
Delta-T
°C
Wind Press
QNH
hPa
Press
MSL
hPa
Rain since
9am
mm
Dir  Spd
km/h
Gust
km/h
Spd
kts
Gust
kts
19/11:30pm 22.6 23.8 19.9 85 1.7 ESE 13 19 7 10 1016.0 1015.9 0.0
19/11:00pm 22.1 22.9 19.1 83 1.9 SSE 13 15 7 8 1016.2 1016.1 0.0
19/10:30pm 22.7 23.6 19.3 81 2.2 S 13 15 7 8 1016.1 1016.0 0.0
19/10:00pm 22.7 23.8 18.9 79 2.4 ESE 11 17 6 9 1016.0 1015.9 0.0
19/09:30pm 23.3 24.1 19.0 77 2.7 ESE 13 15 7 8 1015.7 1015.6 0.0
19/09:00pm 24.9 25.9 19.5 72 3.5 E 13 20 7 11 1015.3 1015.2 0.0
19/08:30pm 25.6 26.2 19.5 69 3.9 E 15 22 8 12 1014.6 1014.5 0.0
19/08:00pm 26.3 26.5 19.4 66 4.5 ENE 17 26 9 14 1014.2 1014.1 0.0
19/07:30pm 27.0 26.9 19.6 64 4.8 ENE 19 28 10 15 1013.9 1013.8 0.0
19/07:00pm 27.8 28.1 19.6 61 5.3 ENE 17 26 9 14 1013.5 1013.4 0.0
19/06:30pm 28.8 28.6 19.4 56 6.1 ENE 19 26 10 14 1013.2 1013.1 0.0
19/06:00pm 29.9 28.0 19.3 53 6.9 ENE 28 33 15 18 1012.7 1012.6 0.0
19/05:30pm 30.9 28.7 19.6 51 7.4 ENE 30 37 16 20 1012.2 1012.1 0.0
19/05:00pm 32.3 30.5 19.5 46 8.4 ENE 28 37 15 20 1011.9 1011.8 0.0
19/04:30pm 33.8 32.1 19.8 43 9.3 E 28 37 15 20 1011.8 1011.7 0.0
19/04:00pm 34.9 33.2 18.0 36 11.0 E 24 33 13 18 1011.8 1011.7 0.0
19/03:30pm 35.7 34.1 14.9 29 13.0 ENE 17 28 9 15 1012.1 1012.0 0.0
19/03:00pm 36.2 34.7 13.0 24 14.1 NNE 13 28 7 15 1012.4 1012.3 0.0
19/02:30pm 35.4 33.3 12.4 25 13.8 NNE 15 32 8 17 1012.8 1012.7 0.0
19/02:00pm 35.6 34.7 15.9 31 12.5 N 15 22 8 12 1013.3 1013.2 0.0
19/01:30pm 33.8 33.0 16.2 35 11.1 ENE 15 22 8 12 1013.9 1013.8 0.0
19/01:00pm 33.2 32.5 18.2 41 9.7 NE 19 28 10 15 1014.4 1014.3 0.0
19/12:30pm 33.5 33.2 16.4 36 10.8 NE 13 19 7 10 1015.0 1014.9 0.0
19/12:00pm 32.4 32.8 18.9 44 8.8 ENE 15 22 8 12 1015.5 1015.4 0.0
19/11:30am 32.2 32.4 17.7 42 9.3 NE 13 20 7 11 1016.0 1015.9 0.0
19/11:00am 31.3 31.9 16.9 42 9.1 NW 9 17 5 9 1016.4 1016.3 0.0
19/10:30am 30.2 31.3 18.0 48 7.8 NW 9 15 5 8 1016.8 1016.7 0.0
19/10:00am 28.9 29.7 18.1 52 6.9 SW 11 19 6 10 1017.0 1016.9 0.0
19/09:30am 28.3 29.2 18.4 55 6.3 NE 11 19 6 10 1017.3 1017.2 0.0
19/09:00am 27.0 28.2 18.3 59 5.5 W 9 19 5 10 1017.8 1017.7 0.0
19/08:30am 26.3 27.7 18.7 63 4.9 SSW 9 13 5 7 1018.0 1017.9 0.0

Other Formats:

Comma delimited format used in spreadsheet applications
http://www.bom.gov.au/fwo/IDQ60801/IDQ60801.94568.axf

JavaScript Object Notation format (JSON) in row-major order
http://www.bom.gov.au/fwo/IDQ60801/IDQ60801.94568.json